createdAt,value
2018-12-15T00:00:45.091Z,2.49
2018-12-15T00:01:45.096Z,2.47
2018-12-15T00:02:45.107Z,2.50
2018-12-15T00:03:45.129Z,2.39
2018-12-15T00:04:45.147Z,2.54
2018-12-15T00:05:45.146Z,2.49
2018-12-15T00:06:45.170Z,2.50
2018-12-15T00:07:45.174Z,2.68
2018-12-15T00:08:45.184Z,2.53
2018-12-15T00:09:45.199Z,2.50
2018-12-15T00:10:45.217Z,2.61
2018-12-15T00:11:45.227Z,2.62
2018-12-15T00:12:45.258Z,2.56
2018-12-15T00:13:45.253Z,2.54
2018-12-15T00:14:45.269Z,2.53
2018-12-15T00:15:45.341Z,2.51
2018-12-15T00:16:45.293Z,2.49
2018-12-15T00:17:45.303Z,2.53
2018-12-15T00:18:45.314Z,2.64
2018-12-15T00:19:45.329Z,2.68
2018-12-15T00:20:45.345Z,2.75
2018-12-15T00:21:45.364Z,2.64
2018-12-15T00:22:45.369Z,2.67
2018-12-15T00:23:45.379Z,2.71
2018-12-15T00:24:45.392Z,2.72
2018-12-15T00:25:45.412Z,2.77
2018-12-15T00:26:45.431Z,2.79
2018-12-15T00:27:45.434Z,2.75
2018-12-15T00:28:45.456Z,2.64
2018-12-15T00:29:45.472Z,2.71
2018-12-15T00:30:45.476Z,2.72
2018-12-15T00:31:45.486Z,2.69
2018-12-15T00:32:45.503Z,2.71
2018-12-15T00:33:45.522Z,2.64
2018-12-15T00:34:45.537Z,2.68
2018-12-15T00:35:45.541Z,2.75
2018-12-15T00:36:45.555Z,2.62
2018-12-15T00:37:45.596Z,2.64
2018-12-15T00:38:45.580Z,2.62
2018-12-15T00:39:45.599Z,2.71
2018-12-15T00:40:45.615Z,2.75
2018-12-15T00:41:45.623Z,2.74
2018-12-15T00:42:45.688Z,2.79
2018-12-15T00:43:45.647Z,2.75
2018-12-15T00:44:45.660Z,2.68
2018-12-15T00:45:45.676Z,2.74
2018-12-15T00:46:45.689Z,2.85
2018-12-15T00:47:45.706Z,2.90
2018-12-15T00:48:45.718Z,2.86
2018-12-15T00:49:45.730Z,2.86
2018-12-15T00:50:45.787Z,2.90
2018-12-15T00:51:45.887Z,2.85
2018-12-15T00:52:45.768Z,2.80
2018-12-15T00:53:45.787Z,2.83
2018-12-15T00:54:45.794Z,2.75
2018-12-15T00:55:45.818Z,2.71
2018-12-15T00:56:45.820Z,2.75
2018-12-15T00:57:45.839Z,2.77
2018-12-15T00:58:45.848Z,2.71
2018-12-15T00:59:45.866Z,2.69
2018-12-15T01:00:45.872Z,2.64
2018-12-15T01:01:46.382Z,2.53
2018-12-15T01:02:45.900Z,2.77
2018-12-15T01:03:45.921Z,2.61
2018-12-15T01:04:45.984Z,2.54
2018-12-15T01:05:45.943Z,2.51
2018-12-15T01:06:45.984Z,2.61
2018-12-15T01:07:45.964Z,2.68
2018-12-15T01:08:46.004Z,2.72
2018-12-15T01:09:46.011Z,2.74
2018-12-15T01:10:46.005Z,2.85
2018-12-15T01:11:46.018Z,2.71
2018-12-15T01:12:46.035Z,2.77
2018-12-15T01:13:46.044Z,2.71
2018-12-15T01:14:46.085Z,2.64
2018-12-15T01:15:46.071Z,2.61
2018-12-15T01:16:46.084Z,2.53
2018-12-15T01:17:46.162Z,2.56
2018-12-15T01:18:46.112Z,2.60
2018-12-15T01:19:46.129Z,2.60
2018-12-15T01:20:46.141Z,2.51
2018-12-15T01:21:46.151Z,2.56
2018-12-15T01:22:46.185Z,2.62
2018-12-15T01:23:46.179Z,2.53
2018-12-15T01:24:46.188Z,2.49
2018-12-15T01:25:46.204Z,2.44
2018-12-15T01:26:46.214Z,2.36
2018-12-15T01:27:46.241Z,2.36
2018-12-15T01:28:46.248Z,2.54
2018-12-15T01:29:46.257Z,2.47
2018-12-15T01:30:46.281Z,2.51
2018-12-15T01:31:46.282Z,2.62
2018-12-15T01:32:46.290Z,2.60
2018-12-15T01:33:46.305Z,2.39
2018-12-15T01:34:46.325Z,2.49
2018-12-15T01:35:46.340Z,2.47
2018-12-15T01:36:46.356Z,2.60
2018-12-15T01:37:46.357Z,2.56
2018-12-15T01:38:46.385Z,2.60
2018-12-15T01:39:46.393Z,2.47
2018-12-15T01:40:46.401Z,2.53
2018-12-15T01:41:46.412Z,2.43
2018-12-15T01:42:46.434Z,2.31
2018-12-15T01:43:46.443Z,2.44
2018-12-15T01:44:46.447Z,2.51
2018-12-15T01:45:46.459Z,2.38
2018-12-15T01:46:46.477Z,2.62
2018-12-15T01:47:46.493Z,2.56
2018-12-15T01:48:46.496Z,2.65
2018-12-15T01:49:46.529Z,2.74
2018-12-15T01:50:46.558Z,2.64
2018-12-15T01:51:46.544Z,2.56
2018-12-15T01:52:46.549Z,2.56
2018-12-15T01:53:46.585Z,2.68
2018-12-15T01:54:46.582Z,2.53
2018-12-15T01:55:46.605Z,2.50
2018-12-15T01:56:46.623Z,2.57
2018-12-15T01:57:46.616Z,2.68
2018-12-15T01:58:46.629Z,2.71
2018-12-15T01:59:46.643Z,2.77
2018-12-15T02:00:46.665Z,2.87
2018-12-15T02:01:46.675Z,2.79
2018-12-15T02:02:46.694Z,2.86
2018-12-15T02:03:46.703Z,2.72
2018-12-15T02:04:46.719Z,2.83
2018-12-15T02:05:46.725Z,2.72
2018-12-15T02:06:46.922Z,2.65
2018-12-15T02:07:46.761Z,2.56
2018-12-15T02:08:46.758Z,2.61
2018-12-15T02:09:46.775Z,2.64
2018-12-15T02:10:46.786Z,2.56
2018-12-15T02:11:46.801Z,2.61
2018-12-15T02:12:46.810Z,2.69
2018-12-15T02:13:46.833Z,2.71
2018-12-15T02:14:46.841Z,2.69
2018-12-15T02:15:46.853Z,2.79
2018-12-15T02:16:46.876Z,2.79
2018-12-15T02:17:46.888Z,2.93
2018-12-15T02:18:46.891Z,3.04
2018-12-15T02:19:46.906Z,3.05
2018-12-15T02:20:46.934Z,3.01
2018-12-15T02:21:46.931Z,3.03
2018-12-15T02:22:46.948Z,3.03
2018-12-15T02:23:46.977Z,3.03
2018-12-15T02:24:46.977Z,2.93
2018-12-15T02:25:46.988Z,2.89
2018-12-15T02:26:47.002Z,2.82
2018-12-15T02:27:47.021Z,2.93
2018-12-15T02:28:47.029Z,3.04
2018-12-15T02:29:47.040Z,3.08
2018-12-15T02:30:47.717Z,3.01
2018-12-15T02:31:47.071Z,2.83
2018-12-15T02:32:47.089Z,2.86
2018-12-15T02:33:47.091Z,2.92
2018-12-15T02:34:47.102Z,2.90
2018-12-15T02:35:47.125Z,2.75
2018-12-15T02:36:47.134Z,2.79
2018-12-15T02:37:47.149Z,2.71
2018-12-15T02:38:47.172Z,2.79
2018-12-15T02:39:47.174Z,2.67
2018-12-15T02:40:47.197Z,2.60
2018-12-15T02:41:47.579Z,2.61
2018-12-15T02:42:47.214Z,2.61
2018-12-15T02:43:47.274Z,2.61
2018-12-15T02:44:47.241Z,2.77
2018-12-15T02:45:47.251Z,2.82
2018-12-15T02:46:47.269Z,2.92
2018-12-15T02:47:47.281Z,2.98
2018-12-15T02:48:47.346Z,2.85
2018-12-15T02:49:47.317Z,2.87
2018-12-15T02:50:47.344Z,2.71
2018-12-15T02:51:47.334Z,2.71
2018-12-15T02:52:47.358Z,2.75
2018-12-15T02:53:47.367Z,2.80
2018-12-15T02:54:47.378Z,2.74
2018-12-15T02:55:47.478Z,2.65
2018-12-15T02:56:47.401Z,2.64
2018-12-15T02:57:47.415Z,2.69
2018-12-15T02:58:47.429Z,2.77
2018-12-15T02:59:47.445Z,2.72
2018-12-15T03:00:47.454Z,2.68
2018-12-15T03:01:47.472Z,2.69
2018-12-15T03:02:47.484Z,2.77
2018-12-15T03:03:47.496Z,2.56
2018-12-15T03:04:47.524Z,2.65
2018-12-15T03:05:47.519Z,2.69
2018-12-15T03:06:47.553Z,2.79
2018-12-15T03:07:47.550Z,2.75
2018-12-15T03:08:47.560Z,2.71
2018-12-15T03:09:47.576Z,2.50
2018-12-15T03:10:47.602Z,2.61
2018-12-15T03:11:47.605Z,2.44
2018-12-15T03:12:47.616Z,2.60
2018-12-15T03:13:47.629Z,2.57
2018-12-15T03:14:47.644Z,2.47
2018-12-15T03:15:47.652Z,2.53
2018-12-15T03:16:47.669Z,2.64
2018-12-15T03:17:48.945Z,2.64
2018-12-15T03:18:47.694Z,2.69
2018-12-15T03:19:47.717Z,2.71
2018-12-15T03:20:47.717Z,2.82
2018-12-15T03:21:47.734Z,2.77
2018-12-15T03:22:47.746Z,2.82
2018-12-15T03:23:47.814Z,2.82
2018-12-15T03:24:47.789Z,2.85
2018-12-15T03:25:47.784Z,2.92
2018-12-15T03:26:47.801Z,2.83
2018-12-15T03:27:47.815Z,2.79
2018-12-15T03:28:47.821Z,2.71
2018-12-15T03:29:47.838Z,2.69
2018-12-15T03:30:47.915Z,2.74
2018-12-15T03:31:48.095Z,2.56
2018-12-15T03:32:47.901Z,2.60
2018-12-15T03:33:47.892Z,2.46
2018-12-15T03:34:47.905Z,2.49
2018-12-15T03:35:47.923Z,2.53
2018-12-15T03:36:47.942Z,2.64
2018-12-15T03:37:47.948Z,2.62
2018-12-15T03:38:48.094Z,2.54
2018-12-15T03:39:47.970Z,2.72
2018-12-15T03:40:47.985Z,2.68
2018-12-15T03:41:48.004Z,2.71
2018-12-15T03:42:48.009Z,2.64
2018-12-15T03:43:48.026Z,2.62
2018-12-15T03:44:48.041Z,2.49
2018-12-15T03:45:48.048Z,2.61
2018-12-15T03:46:48.070Z,2.50
2018-12-15T03:47:48.081Z,2.56
2018-12-15T03:48:48.095Z,2.53
2018-12-15T03:49:48.104Z,2.72
2018-12-15T03:50:48.119Z,2.77
2018-12-15T03:51:48.134Z,2.79
2018-12-15T03:52:48.145Z,2.85
2018-12-15T03:53:48.167Z,2.80
2018-12-15T03:54:48.185Z,2.72
2018-12-15T03:55:48.189Z,2.65
2018-12-15T03:56:48.193Z,2.64
2018-12-15T03:57:48.226Z,2.62
2018-12-15T03:58:48.226Z,2.69
2018-12-15T03:59:48.233Z,2.71
2018-12-15T04:00:48.259Z,2.72
2018-12-15T04:01:48.265Z,2.89
2018-12-15T04:02:48.274Z,2.89
2018-12-15T04:03:48.290Z,2.75
2018-12-15T04:04:48.298Z,2.74
2018-12-15T04:05:48.317Z,2.64
2018-12-15T04:06:48.351Z,2.57
2018-12-15T04:07:48.358Z,2.67
2018-12-15T04:08:48.351Z,2.71
2018-12-15T04:09:48.374Z,2.64
2018-12-15T04:10:48.378Z,2.60
2018-12-15T04:11:48.398Z,2.71
2018-12-15T04:12:48.406Z,2.83
2018-12-15T04:13:48.438Z,2.90
2018-12-15T04:14:48.441Z,2.92
2018-12-15T04:15:48.446Z,2.85
2018-12-15T04:16:48.460Z,2.74
2018-12-15T04:17:48.477Z,2.77
2018-12-15T04:18:48.511Z,2.89
2018-12-15T04:19:48.496Z,2.95
2018-12-15T04:20:48.601Z,3.01
2018-12-15T04:21:48.527Z,3.04
2018-12-15T04:22:48.540Z,3.00
2018-12-15T04:23:48.553Z,3.04
2018-12-15T04:24:48.563Z,2.97
2018-12-15T04:25:48.586Z,3.00
2018-12-15T04:26:48.657Z,2.90
2018-12-15T04:27:48.610Z,3.00
2018-12-15T04:28:48.623Z,3.00
2018-12-15T04:29:48.637Z,3.04
2018-12-15T04:30:48.655Z,3.01
2018-12-15T04:31:48.672Z,3.05
2018-12-15T04:32:48.680Z,2.95
2018-12-15T04:33:48.713Z,3.04
2018-12-15T04:34:48.702Z,3.07
2018-12-15T04:35:48.739Z,3.04
2018-12-15T04:36:48.734Z,2.89
2018-12-15T04:37:48.742Z,2.95
2018-12-15T04:38:48.756Z,2.98
2018-12-15T04:39:48.770Z,2.83
2018-12-15T04:40:48.784Z,2.85
2018-12-15T04:41:48.798Z,2.90
2018-12-15T04:42:48.829Z,2.95
2018-12-15T04:43:48.832Z,2.98
2018-12-15T04:44:48.839Z,3.07
2018-12-15T04:45:48.856Z,2.86
2018-12-15T04:46:48.865Z,2.72
2018-12-15T04:47:48.884Z,2.83
2018-12-15T04:48:48.907Z,2.87
2018-12-15T04:49:48.910Z,2.83
2018-12-15T04:50:48.923Z,2.65
2018-12-15T04:51:48.947Z,2.56
2018-12-15T04:52:48.946Z,2.62
2018-12-15T04:53:48.959Z,2.79
2018-12-15T04:54:48.973Z,2.77
2018-12-15T04:55:49.005Z,2.65
2018-12-15T04:56:49.002Z,2.79
2018-12-15T04:57:49.020Z,2.74
2018-12-15T04:58:49.026Z,2.74
2018-12-15T04:59:49.044Z,2.79
2018-12-15T05:00:49.053Z,2.77
2018-12-15T05:01:49.072Z,2.65
2018-12-15T05:02:49.080Z,2.56
2018-12-15T05:03:49.095Z,2.61
2018-12-15T05:04:49.108Z,2.51
2018-12-15T05:05:49.122Z,2.51
2018-12-15T05:06:49.141Z,2.49
2018-12-15T05:07:49.149Z,2.62
2018-12-15T05:08:49.184Z,2.62
2018-12-15T05:09:49.178Z,2.51
2018-12-15T05:10:49.188Z,2.53
2018-12-15T05:11:49.209Z,2.47
2018-12-15T05:12:49.217Z,2.53
2018-12-15T05:13:49.232Z,2.56
2018-12-15T05:14:49.239Z,2.62
2018-12-15T05:15:49.252Z,2.56
2018-12-15T05:16:49.267Z,2.49
2018-12-15T05:17:49.282Z,2.51
2018-12-15T05:18:49.298Z,2.54
2018-12-15T05:19:49.315Z,2.57
2018-12-15T05:20:49.318Z,2.68
2018-12-15T05:21:49.341Z,2.64
2018-12-15T05:22:49.400Z,2.64
2018-12-15T05:23:49.375Z,2.74
2018-12-15T05:24:49.375Z,2.67
2018-12-15T05:25:49.391Z,2.67
2018-12-15T05:26:49.401Z,2.64
2018-12-15T05:27:49.416Z,2.67
2018-12-15T05:28:49.424Z,2.72
2018-12-15T05:29:49.441Z,2.62
2018-12-15T05:30:49.458Z,2.69
2018-12-15T05:31:49.477Z,2.75
2018-12-15T05:32:49.550Z,2.72
2018-12-15T05:33:49.498Z,2.60
2018-12-15T05:34:49.508Z,2.64
2018-12-15T05:35:49.561Z,2.68
2018-12-15T05:36:49.529Z,2.65
2018-12-15T05:37:49.549Z,2.67
2018-12-15T05:38:49.562Z,2.54
2018-12-15T05:39:49.581Z,2.62
2018-12-15T05:40:49.590Z,2.62
2018-12-15T05:41:49.600Z,2.71
2018-12-15T05:42:49.630Z,2.68
2018-12-15T05:43:49.629Z,2.65
2018-12-15T05:44:49.642Z,2.57
2018-12-15T05:45:49.658Z,2.46
2018-12-15T05:46:49.681Z,2.49
2018-12-15T05:47:49.685Z,2.50
2018-12-15T05:48:49.695Z,2.50
2018-12-15T05:49:49.799Z,2.61
2018-12-15T05:50:49.765Z,2.67
2018-12-15T05:51:49.728Z,2.79
2018-12-15T05:52:49.755Z,2.71
2018-12-15T05:53:49.757Z,2.53
2018-12-15T05:54:49.768Z,2.64
2018-12-15T05:55:49.788Z,2.56
2018-12-15T05:56:49.801Z,2.53
2018-12-15T05:57:49.815Z,2.50
2018-12-15T05:58:49.834Z,2.56
2018-12-15T05:59:49.835Z,2.51
2018-12-15T06:00:49.870Z,2.51
2018-12-15T06:01:49.864Z,2.54
2018-12-15T06:02:49.881Z,2.53
2018-12-15T06:03:49.892Z,2.54
2018-12-15T06:04:49.913Z,2.56
2018-12-15T06:05:49.918Z,2.54
2018-12-15T06:06:49.929Z,2.50
2018-12-15T06:07:49.942Z,2.67
2018-12-15T06:08:49.966Z,2.61
2018-12-15T06:09:49.970Z,2.80
2018-12-15T06:10:49.985Z,2.67
2018-12-15T06:11:50.004Z,2.64
2018-12-15T06:12:50.008Z,2.65
2018-12-15T06:13:50.031Z,2.50
2018-12-15T06:14:50.036Z,2.49
2018-12-15T06:15:50.051Z,2.50
2018-12-15T06:16:50.066Z,2.35
2018-12-15T06:17:50.078Z,2.53
2018-12-15T06:18:50.105Z,2.53
2018-12-15T06:19:50.105Z,2.54
2018-12-15T06:20:50.120Z,2.54
2018-12-15T06:21:50.130Z,2.53
2018-12-15T06:22:50.144Z,2.62
2018-12-15T06:23:50.164Z,2.67
2018-12-15T06:24:50.226Z,2.71
2018-12-15T06:25:50.185Z,2.72
2018-12-15T06:26:50.193Z,2.67
2018-12-15T06:27:50.216Z,2.54
2018-12-15T06:28:50.223Z,2.54
2018-12-15T06:29:50.240Z,2.62
2018-12-15T06:30:50.251Z,2.65
2018-12-15T06:31:50.284Z,2.62
2018-12-15T06:32:50.285Z,2.60
2018-12-15T06:33:50.291Z,2.56
2018-12-15T06:34:50.338Z,2.62
2018-12-15T06:35:50.347Z,2.61
2018-12-15T06:36:50.330Z,2.67
2018-12-15T06:37:50.384Z,2.71
2018-12-15T06:38:50.358Z,2.71
2018-12-15T06:39:50.366Z,2.69
2018-12-15T06:40:50.384Z,2.69
2018-12-15T06:41:50.394Z,2.71
2018-12-15T06:42:50.411Z,2.80
2018-12-15T06:43:50.418Z,2.65
2018-12-15T06:44:50.434Z,2.68
2018-12-15T06:45:50.472Z,2.50
2018-12-15T06:46:50.462Z,2.46
2018-12-15T06:47:50.472Z,2.53
2018-12-15T06:48:50.489Z,2.51
2018-12-15T06:49:50.516Z,2.33
2018-12-15T06:50:50.513Z,2.42
2018-12-15T06:51:50.526Z,2.26
2018-12-15T06:52:50.538Z,2.36
2018-12-15T06:53:50.552Z,2.38
2018-12-15T06:54:50.571Z,2.36
2018-12-15T06:55:50.578Z,2.33
2018-12-15T06:56:50.654Z,2.35
2018-12-15T06:57:50.616Z,2.36
2018-12-15T06:58:50.617Z,2.31
2018-12-15T06:59:50.631Z,2.38
2018-12-15T07:00:50.644Z,2.35
2018-12-15T07:01:50.667Z,2.39
2018-12-15T07:02:50.671Z,2.54
2018-12-15T07:03:50.685Z,2.54
2018-12-15T07:04:50.698Z,2.53
2018-12-15T07:05:50.710Z,2.56
2018-12-15T07:06:50.735Z,2.68
2018-12-15T07:07:50.745Z,2.54
2018-12-15T07:08:50.753Z,2.39
2018-12-15T07:09:50.757Z,2.36
2018-12-15T07:10:50.769Z,2.38
2018-12-15T07:11:50.786Z,2.43
2018-12-15T07:12:50.797Z,2.39
2018-12-15T07:13:50.981Z,2.49
2018-12-15T07:14:50.828Z,2.33
2018-12-15T07:15:50.873Z,2.29
2018-12-15T07:16:50.850Z,2.43
2018-12-15T07:17:50.864Z,2.38
2018-12-15T07:18:50.886Z,2.47
2018-12-15T07:19:50.899Z,2.54
2018-12-15T07:20:50.911Z,2.44
2018-12-15T07:21:50.948Z,2.51
2018-12-15T07:22:50.978Z,2.50
2018-12-15T07:23:50.948Z,2.49
2018-12-15T07:24:50.959Z,2.50
2018-12-15T07:25:51.000Z,2.54
2018-12-15T07:26:51.070Z,2.51
2018-12-15T07:27:50.992Z,2.47
2018-12-15T07:28:51.012Z,2.46
2018-12-15T07:29:51.027Z,2.54
2018-12-15T07:30:51.125Z,2.50
2018-12-15T07:31:51.047Z,2.61
2018-12-15T07:32:51.077Z,2.51
2018-12-15T07:33:51.155Z,2.51
2018-12-15T07:34:51.091Z,2.56
2018-12-15T07:35:51.097Z,2.65
2018-12-15T07:36:51.115Z,2.57
2018-12-15T07:37:51.172Z,2.49
2018-12-15T07:38:51.147Z,2.49
2018-12-15T07:39:51.153Z,2.49
2018-12-15T07:40:51.162Z,2.51
2018-12-15T07:41:51.185Z,2.62
2018-12-15T07:42:51.191Z,2.47
2018-12-15T07:43:51.202Z,2.65
2018-12-15T07:44:51.216Z,2.77
2018-12-15T07:45:51.276Z,2.80
2018-12-15T07:46:51.260Z,2.64
2018-12-15T07:47:51.256Z,2.62
2018-12-15T07:48:51.634Z,2.64
2018-12-15T07:49:51.294Z,2.61
2018-12-15T07:50:51.312Z,2.71
2018-12-15T07:51:51.322Z,2.69
2018-12-15T07:52:51.320Z,2.68
2018-12-15T07:53:51.332Z,2.53
2018-12-15T07:54:51.353Z,2.54
2018-12-15T07:55:51.370Z,2.62
2018-12-15T07:56:51.374Z,2.75
2018-12-15T07:57:51.393Z,2.85
2018-12-15T07:58:51.398Z,2.75
2018-12-15T07:59:51.420Z,2.79
2018-12-15T08:00:51.443Z,2.75
2018-12-15T08:01:51.447Z,2.71
2018-12-15T08:02:51.458Z,2.69
2018-12-15T08:03:51.472Z,2.64
2018-12-15T08:04:51.481Z,2.71
2018-12-15T08:05:51.498Z,2.64
2018-12-15T08:06:51.512Z,2.65
2018-12-15T08:07:51.554Z,2.85
2018-12-15T08:08:51.534Z,2.89
2018-12-15T08:09:51.551Z,2.87
2018-12-15T08:10:51.568Z,2.80
2018-12-15T08:11:51.573Z,2.79
2018-12-15T08:12:51.582Z,2.90
2018-12-15T08:13:51.602Z,2.92
2018-12-15T08:14:51.618Z,2.90
2018-12-15T08:15:51.634Z,2.95
2018-12-15T08:16:51.654Z,3.01
2018-12-15T08:17:51.655Z,2.92
2018-12-15T08:18:57.903Z,3.00
2018-12-15T08:19:51.681Z,2.95
2018-12-15T08:20:51.705Z,2.86
2018-12-15T08:21:51.709Z,2.77
2018-12-15T08:22:51.726Z,2.62
2018-12-15T08:23:51.739Z,2.57
2018-12-15T08:24:51.762Z,2.53
2018-12-15T08:25:51.784Z,2.56
2018-12-15T08:26:51.775Z,2.69
2018-12-15T08:27:51.824Z,2.72
2018-12-15T08:28:51.798Z,2.77
2018-12-15T08:29:51.833Z,2.82
2018-12-15T08:30:51.826Z,2.68
2018-12-15T08:31:51.844Z,2.86
2018-12-15T08:32:51.858Z,2.89
2018-12-15T08:33:51.878Z,2.90
2018-12-15T08:34:51.879Z,2.85
2018-12-15T08:35:51.898Z,2.92
2018-12-15T08:36:51.908Z,2.89
2018-12-15T08:37:51.920Z,2.82
2018-12-15T08:38:51.936Z,2.80
2018-12-15T08:39:51.948Z,2.86
2018-12-15T08:40:51.965Z,2.90
2018-12-15T08:41:51.981Z,2.82
2018-12-15T08:42:51.987Z,2.75
2018-12-15T08:43:51.998Z,2.74
2018-12-15T08:44:52.026Z,2.85
2018-12-15T08:45:52.037Z,2.93
2018-12-15T08:46:52.056Z,2.87
2018-12-15T08:47:52.115Z,2.92
2018-12-15T08:48:52.087Z,2.90
2018-12-15T08:49:52.088Z,2.90
2018-12-15T08:50:52.101Z,2.95
2018-12-15T08:51:52.113Z,2.95
2018-12-15T08:52:52.125Z,3.00
2018-12-15T08:53:52.168Z,2.97
2018-12-15T08:54:52.156Z,3.00
2018-12-15T08:55:52.162Z,3.14
2018-12-15T08:56:52.178Z,3.25
2018-12-15T08:57:52.188Z,3.22
2018-12-15T08:58:52.220Z,3.13
2018-12-15T08:59:52.218Z,3.00
2018-12-15T09:00:52.248Z,3.00
2018-12-15T09:01:52.276Z,3.00
2018-12-15T09:02:52.260Z,2.98
2018-12-15T09:03:52.271Z,3.10
2018-12-15T09:04:52.288Z,3.13
2018-12-15T09:05:52.306Z,3.13
2018-12-15T09:06:52.316Z,3.14
2018-12-15T09:07:52.333Z,3.25
2018-12-15T09:08:52.339Z,3.19
2018-12-15T09:09:52.351Z,3.28
2018-12-15T09:10:52.393Z,3.19
2018-12-15T09:11:52.386Z,3.00
2018-12-15T09:12:52.459Z,3.08
2018-12-15T09:13:52.409Z,3.21
2018-12-15T09:14:52.434Z,3.31
2018-12-15T09:15:52.441Z,3.13
2018-12-15T09:16:52.453Z,3.07
2018-12-15T09:17:52.461Z,3.07
2018-12-15T09:18:52.477Z,3.25
2018-12-15T09:19:52.495Z,3.22
2018-12-15T09:20:52.512Z,3.28
2018-12-15T09:21:52.523Z,3.26
2018-12-15T09:22:52.533Z,3.13
2018-12-15T09:23:52.545Z,3.04
2018-12-15T09:24:52.567Z,3.29
2018-12-15T09:25:52.574Z,3.23
2018-12-15T09:26:52.587Z,3.31
2018-12-15T09:27:52.606Z,3.36
2018-12-15T09:28:52.616Z,3.42
2018-12-15T09:29:52.626Z,3.50
2018-12-15T09:30:52.646Z,3.56
2018-12-15T09:31:52.659Z,3.45
2018-12-15T09:32:52.668Z,3.45
2018-12-15T09:33:52.684Z,3.53
2018-12-15T09:34:52.697Z,3.34
2018-12-15T09:35:52.711Z,3.21
2018-12-15T09:36:54.017Z,3.10
2018-12-15T09:37:52.742Z,3.13
2018-12-15T09:38:52.751Z,2.98
2018-12-15T09:39:52.771Z,3.11
2018-12-15T09:40:52.785Z,3.08
2018-12-15T09:41:52.802Z,2.98
2018-12-15T09:42:52.817Z,3.19
2018-12-15T09:43:52.824Z,3.28
2018-12-15T09:44:52.841Z,3.23
2018-12-15T09:45:52.862Z,3.21
2018-12-15T09:46:52.869Z,3.25
2018-12-15T09:47:52.878Z,3.08
2018-12-15T09:48:52.892Z,3.13
2018-12-15T09:49:52.907Z,3.14
2018-12-15T09:50:52.927Z,3.23
2018-12-15T09:51:52.944Z,3.23
2018-12-15T09:52:52.955Z,3.21
2018-12-15T09:53:52.965Z,3.14
2018-12-15T09:54:53.006Z,3.28
2018-12-15T09:55:53.016Z,3.25
2018-12-15T09:56:53.005Z,3.22
2018-12-15T09:57:53.021Z,3.31
2018-12-15T09:58:53.034Z,3.32
2018-12-15T09:59:53.046Z,3.40
2018-12-15T10:00:53.059Z,3.36
2018-12-15T10:01:53.076Z,3.36
2018-12-15T10:02:53.085Z,3.40
2018-12-15T10:03:53.103Z,3.36
2018-12-15T10:04:53.117Z,3.26
2018-12-15T10:05:53.129Z,3.22
2018-12-15T10:06:53.161Z,3.29
2018-12-15T10:07:53.164Z,3.32
2018-12-15T10:08:53.180Z,3.37
2018-12-15T10:09:53.190Z,3.41
2018-12-15T10:10:53.201Z,3.36
2018-12-15T10:11:53.211Z,3.28
2018-12-15T10:12:53.227Z,3.21
2018-12-15T10:13:53.344Z,3.07
2018-12-15T10:14:53.250Z,3.03
2018-12-15T10:15:53.320Z,3.10
2018-12-15T10:16:53.289Z,3.11
2018-12-15T10:17:53.291Z,3.11
2018-12-15T10:18:53.313Z,3.08
2018-12-15T10:19:53.322Z,3.08
2018-12-15T10:20:53.368Z,3.13
2018-12-15T10:21:53.371Z,3.16
2018-12-15T10:22:53.372Z,3.01
2018-12-15T10:23:53.398Z,3.01
2018-12-15T10:24:53.398Z,3.00
2018-12-15T10:25:53.407Z,2.90
2018-12-15T10:26:53.443Z,2.93
2018-12-15T10:27:53.448Z,2.97
2018-12-15T10:28:53.451Z,2.95
2018-12-15T10:29:53.461Z,3.00
2018-12-15T10:30:53.610Z,2.95
2018-12-15T10:31:53.490Z,2.85
2018-12-15T10:32:53.501Z,2.92
2018-12-15T10:33:53.523Z,2.98
2018-12-15T10:34:53.524Z,2.98
2018-12-15T10:35:53.544Z,3.00
2018-12-15T10:36:53.557Z,3.18
2018-12-15T10:37:53.568Z,3.10
2018-12-15T10:38:53.584Z,3.04
2018-12-15T10:39:53.601Z,3.10
2018-12-15T10:40:53.607Z,3.11
2018-12-15T10:41:53.624Z,3.13
2018-12-15T10:42:53.645Z,3.16
2018-12-15T10:43:53.653Z,3.01
2018-12-15T10:44:53.671Z,3.13
2018-12-15T10:45:53.680Z,3.14
2018-12-15T10:46:53.698Z,3.22
2018-12-15T10:47:53.714Z,3.25
2018-12-15T10:48:53.740Z,3.26
2018-12-15T10:49:53.795Z,3.25
2018-12-15T10:50:53.771Z,3.29
2018-12-15T10:51:53.763Z,3.37
2018-12-15T10:52:53.773Z,3.34
2018-12-15T10:53:53.803Z,3.36
2018-12-15T10:54:53.801Z,3.34
2018-12-15T10:55:53.813Z,3.40
2018-12-15T10:56:53.830Z,3.31
2018-12-15T10:57:53.842Z,3.19
2018-12-15T10:58:53.870Z,3.28
2018-12-15T10:59:53.872Z,3.16
2018-12-15T11:00:53.901Z,3.16
2018-12-15T11:01:53.895Z,3.23
2018-12-15T11:02:53.915Z,3.36
2018-12-15T11:03:53.931Z,3.36
2018-12-15T11:04:53.963Z,3.47
2018-12-15T11:05:53.946Z,3.48
2018-12-15T11:06:53.966Z,3.47
2018-12-15T11:07:53.979Z,3.50
2018-12-15T11:08:53.997Z,3.34
2018-12-15T11:09:54.013Z,3.34
2018-12-15T11:10:54.027Z,3.47
2018-12-15T11:11:54.037Z,3.34
2018-12-15T11:12:54.061Z,3.25
2018-12-15T11:13:54.063Z,3.32
2018-12-15T11:14:54.075Z,3.48
2018-12-15T11:15:54.126Z,3.37
2018-12-15T11:16:54.111Z,3.28
2018-12-15T11:17:54.119Z,3.32
2018-12-15T11:18:54.137Z,3.37
2018-12-15T11:19:54.152Z,3.25
2018-12-15T11:20:54.181Z,3.13
2018-12-15T11:21:54.184Z,3.10
2018-12-15T11:22:54.212Z,2.93
2018-12-15T11:23:54.208Z,2.83
2018-12-15T11:24:54.217Z,3.00
2018-12-15T11:25:54.234Z,3.07
2018-12-15T11:26:54.251Z,3.11
2018-12-15T11:27:54.256Z,2.95
2018-12-15T11:28:54.284Z,3.05
2018-12-15T11:29:54.304Z,3.01
2018-12-15T11:30:54.342Z,2.89
2018-12-15T11:31:54.318Z,2.89
2018-12-15T11:32:54.328Z,2.89
2018-12-15T11:33:54.345Z,3.01
2018-12-15T11:34:54.362Z,2.97
2018-12-15T11:35:54.405Z,2.98
2018-12-15T11:36:54.381Z,2.95
2018-12-15T11:37:54.395Z,2.86
2018-12-15T11:38:54.408Z,2.86
2018-12-15T11:39:55.282Z,2.80
2018-12-15T11:40:54.457Z,2.86
2018-12-15T11:41:54.451Z,3.00
2018-12-15T11:42:54.462Z,3.08
2018-12-15T11:43:54.477Z,2.98
2018-12-15T11:44:54.510Z,2.95
2018-12-15T11:45:54.535Z,2.87
2018-12-15T11:46:54.526Z,2.97
2018-12-15T11:47:54.532Z,2.85
2018-12-15T11:48:54.624Z,2.87
2018-12-15T11:49:54.576Z,2.85
2018-12-15T11:50:54.574Z,2.74
2018-12-15T11:51:54.586Z,2.74
2018-12-15T11:52:54.603Z,2.85
2018-12-15T11:53:54.658Z,3.04
2018-12-15T11:54:54.626Z,2.98
2018-12-15T11:55:54.643Z,3.11
2018-12-15T11:56:54.664Z,3.08
2018-12-15T11:57:54.674Z,3.13
2018-12-15T11:58:54.682Z,3.21
2018-12-15T11:59:54.696Z,3.13
2018-12-15T12:00:54.710Z,3.03
2018-12-15T12:01:54.717Z,2.87
2018-12-15T12:02:54.732Z,3.03
2018-12-15T12:03:54.746Z,3.00
2018-12-15T12:04:54.764Z,3.07
2018-12-15T12:05:54.779Z,3.05
2018-12-15T12:06:54.790Z,3.23
2018-12-15T12:07:54.802Z,3.26
2018-12-15T12:08:54.814Z,3.26
2018-12-15T12:09:54.846Z,3.18
2018-12-15T12:10:54.852Z,3.13
2018-12-15T12:11:54.958Z,3.05
2018-12-15T12:12:54.874Z,2.97
2018-12-15T12:14:00.308Z,3.01
2018-12-15T12:14:54.908Z,2.83
2018-12-15T12:15:54.919Z,2.93
2018-12-15T12:16:54.931Z,2.87
2018-12-15T12:17:54.936Z,3.03
2018-12-15T12:18:54.960Z,2.97
2018-12-15T12:19:54.966Z,2.93
2018-12-15T12:20:54.975Z,2.98
2018-12-15T12:21:54.990Z,3.05
2018-12-15T12:22:55.009Z,3.08
2018-12-15T12:23:55.025Z,3.07
2018-12-15T12:24:55.030Z,3.11
2018-12-15T12:25:55.053Z,3.16
2018-12-15T12:26:55.067Z,3.14
2018-12-15T12:27:55.071Z,3.13
2018-12-15T12:28:55.099Z,3.37
2018-12-15T12:29:55.098Z,3.26
2018-12-15T12:30:55.116Z,3.21
2018-12-15T12:31:55.136Z,2.97
2018-12-15T12:32:55.139Z,2.98
2018-12-15T12:33:55.157Z,3.13
2018-12-15T12:34:55.172Z,3.05
2018-12-15T12:35:55.181Z,3.11
2018-12-15T12:36:55.195Z,3.28
2018-12-15T12:37:55.240Z,3.28
2018-12-15T12:38:55.227Z,3.22
2018-12-15T12:39:55.247Z,3.08
2018-12-15T12:40:55.282Z,3.03
2018-12-15T12:41:55.266Z,3.00
2018-12-15T12:42:55.290Z,2.87
2018-12-15T12:43:55.293Z,2.85
2018-12-15T12:44:55.305Z,2.89
2018-12-15T12:45:55.328Z,3.00
2018-12-15T12:46:55.339Z,2.90
2018-12-15T12:47:55.416Z,2.98
2018-12-15T12:48:55.363Z,2.89
2018-12-15T12:49:56.950Z,2.83
2018-12-15T12:50:55.388Z,2.89
2018-12-15T12:51:55.406Z,2.90
2018-12-15T12:52:55.416Z,2.83
2018-12-15T12:53:55.446Z,2.95
2018-12-15T12:54:55.443Z,2.86
2018-12-15T12:55:55.455Z,2.89
2018-12-15T12:56:55.472Z,2.90
2018-12-15T12:57:55.485Z,2.85
2018-12-15T12:58:55.496Z,2.85
2018-12-15T12:59:55.513Z,2.89
2018-12-15T13:00:55.519Z,2.89
2018-12-15T13:01:55.538Z,2.92
2018-12-15T13:02:55.549Z,2.89
2018-12-15T13:03:55.563Z,2.86
2018-12-15T13:04:55.575Z,2.90
2018-12-15T13:05:55.589Z,2.69
2018-12-15T13:06:55.604Z,2.95
2018-12-15T13:07:55.627Z,2.97
2018-12-15T13:08:55.629Z,2.89
2018-12-15T13:09:55.649Z,2.89
2018-12-15T13:10:55.657Z,2.89
2018-12-15T13:11:55.678Z,2.90
2018-12-15T13:12:55.694Z,2.87
2018-12-15T13:13:55.719Z,2.85
2018-12-15T13:14:55.722Z,2.79
2018-12-15T13:15:55.728Z,2.71
2018-12-15T13:16:55.739Z,2.85
2018-12-15T13:17:55.757Z,2.80
2018-12-15T13:18:56.062Z,2.72